CheckWX is a tool to help pilots better visualize weather data.  It is not intended as a substitute for an official pre-flight weather briefing.

07:33:38 UTC

KRNP METAR
Owosso Community Airport
Owosso, Michigan, USA
Current

19 mins ago

KRNP 230715Z AUTO 22005KT 10SM CLR 02/M06 A3006 RMK AO2 T00211060
Observed
Feb-23 @ 07:15 UTC
Wind
  • 220° at 5 KTS
Visibility
10 SM
Flight Rules
VFR
Cloud Levels
  • Clear skies
Temperature
C / 36°F
Dewpoint
-6°C / 21°F
Humidity
56%
Altimeter
30.06" Hg
Pressure
1017.92 hPa
Previous

38 mins ago

KRNP 230656Z AUTO 21005KT 10SM CLR 02/M06 A3007 RMK AO2 T00201060
Observed
Feb-23 @ 06:56 UTC
Wind
  • 210° at 5 KTS
Visibility
10 SM
Flight Rules
VFR
Cloud Levels
  • Clear skies
Temperature
C / 36°F
Dewpoint
-6°C / 21°F
Humidity
56%
Altimeter
30.07" Hg
Pressure
1018.32 hPa
Previous

58 mins ago

KRNP 230636Z AUTO 21005KT 10SM CLR 02/M06 A3007 RMK AO2 T00241057
Observed
Feb-23 @ 06:36 UTC
Wind
  • 210° at 5 KTS
Visibility
10 SM
Flight Rules
VFR
Cloud Levels
  • Clear skies
Temperature
C / 36°F
Dewpoint
-6°C / 21°F
Humidity
56%
Altimeter
30.07" Hg
Pressure
1018.32 hPa